sensor_id;sensor_type;location;lat;lon;timestamp;pressure;altitude;pressure_sealevel;temperature;humidity
21153;BME280;10734;44.792;20.482;2023-02-10T09:50:54;102236.72;;;5.20;nan
21153;BME280;10734;44.792;20.482;2023-02-10T09:53:25;102232.19;;;4.84;nan
21153;BME280;10734;44.792;20.482;2023-02-10T09:56:03;102229.53;;;4.92;nan
21153;BME280;10734;44.792;20.482;2023-02-10T09:58:40;102237.59;;;5.16;nan
21153;BME280;10734;44.792;20.482;2023-02-10T10:06:39;102236.59;;;4.59;nan
21153;BME280;10734;44.792;20.482;2023-02-10T10:11:48;102223.34;;;5.37;nan
21153;BME280;10734;44.792;20.482;2023-02-10T10:14:34;102223.31;;;5.02;nan
21153;BME280;10734;44.792;20.482;2023-02-10T10:17:28;102223.34;;;5.34;nan
21153;BME280;10734;44.792;20.482;2023-02-10T10:31:19;102199.28;;;5.53;nan
21153;BME280;10734;44.792;20.482;2023-02-10T10:33:53;102199.19;;;6.03;nan
21153;BME280;10734;44.792;20.482;2023-02-10T10:36:23;102193.94;;;5.13;nan
21153;BME280;10734;44.792;20.482;2023-02-10T10:39:03;102193.06;;;5.25;nan
21153;BME280;10734;44.792;20.482;2023-02-10T10:41:37;102189.41;;;5.91;nan
21153;BME280;10734;44.792;20.482;2023-02-10T10:44:04;102191.13;;;6.19;nan
21153;BME280;10734;44.792;20.482;2023-02-10T10:46:49;102192.06;;;5.84;nan
21153;BME280;10734;44.792;20.482;2023-02-10T10:49:18;102185.44;;;6.80;nan
21153;BME280;10734;44.792;20.482;2023-02-10T10:51:45;102185.97;;;7.23;nan
21153;BME280;10734;44.792;20.482;2023-02-10T10:54:17;102185.03;;;7.32;nan
21153;BME280;10734;44.792;20.482;2023-02-10T10:56:55;102183.28;;;8.11;nan
21153;BME280;10734;44.792;20.482;2023-02-10T10:59:39;102180.81;;;8.67;nan
21153;BME280;10734;44.792;20.482;2023-02-10T11:02:14;102166.53;;;9.70;nan
21153;BME280;10734;44.792;20.482;2023-02-10T11:04:41;102167.50;;;9.66;nan
21153;BME280;10734;44.792;20.482;2023-02-10T11:07:12;102166.25;;;9.85;nan
21153;BME280;10734;44.792;20.482;2023-02-10T11:09:50;102159.94;;;10.31;nan
21153;BME280;10734;44.792;20.482;2023-02-10T11:12:39;102167.03;;;9.42;nan
21153;BME280;10734;44.792;20.482;2023-02-10T11:15:41;102156.44;;;10.25;nan
21153;BME280;10734;44.792;20.482;2023-02-10T11:18:18;102155.28;;;9.94;nan
21153;BME280;10734;44.792;20.482;2023-02-10T11:21:13;102154.47;;;9.44;nan
21153;BME280;10734;44.792;20.482;2023-02-10T11:23:51;102151.94;;;10.25;nan
21153;BME280;10734;44.792;20.482;2023-02-10T11:26:23;102141.59;;;10.49;nan
21153;BME280;10734;44.792;20.482;2023-02-10T11:28:51;102149.03;;;10.37;nan
21153;BME280;10734;44.792;20.482;2023-02-10T11:33:56;102131.22;;;9.87;nan
21153;BME280;10734;44.792;20.482;2023-02-10T11:36:54;102125.50;;;10.83;nan
21153;BME280;10734;44.792;20.482;2023-02-10T11:39:34;102119.09;;;11.57;nan
21153;BME280;10734;44.792;20.482;2023-02-10T11:42:26;102119.41;;;11.46;nan
21153;BME280;10734;44.792;20.482;2023-02-10T11:45:20;102118.06;;;11.61;nan
21153;BME280;10734;44.792;20.482;2023-02-10T11:47:47;102126.34;;;11.21;nan
21153;BME280;10734;44.792;20.482;2023-02-10T11:50:27;102120.03;;;10.07;nan
21153;BME280;10734;44.792;20.482;2023-02-10T11:52:54;102120.53;;;10.27;nan
21153;BME280;10734;44.792;20.482;2023-02-10T11:55:31;102116.41;;;10.88;nan
21153;BME280;10734;44.792;20.482;2023-02-10T12:01:19;102117.31;;;10.08;nan
21153;BME280;10734;44.792;20.482;2023-02-10T12:32:49;102103.31;;;12.05;nan
21153;BME280;10734;44.792;20.482;2023-02-10T12:40:30;102101.28;;;13.26;nan
21153;BME280;10734;44.792;20.482;2023-02-10T12:43:29;102097.59;;;13.29;nan
21153;BME280;10734;44.792;20.482;2023-02-10T12:54:37;102095.25;;;14.16;nan
21153;BME280;10734;44.792;20.482;2023-02-10T13:03:01;102083.34;;;14.66;nan
21153;BME280;10734;44.792;20.482;2023-02-10T13:08:32;102086.78;;;14.48;nan
21153;BME280;10734;44.792;20.482;2023-02-10T13:11:10;102087.56;;;14.51;nan
21153;BME280;10734;44.792;20.482;2023-02-10T13:13:40;102089.56;;;14.90;nan
21153;BME280;10734;44.792;20.482;2023-02-10T13:16:18;102089.53;;;14.46;nan
21153;BME280;10734;44.792;20.482;2023-02-10T13:21:53;102096.22;;;13.90;nan
21153;BME280;10734;44.792;20.482;2023-02-10T13:24:44;102089.63;;;13.98;nan
21153;BME280;10734;44.792;20.482;2023-02-10T13:32:49;102090.69;;;13.18;nan
21153;BME280;10734;44.792;20.482;2023-02-10T13:35:22;102096.41;;;10.97;nan
21153;BME280;10734;44.792;20.482;2023-02-10T13:37:56;102094.19;;;12.39;nan
21153;BME280;10734;44.792;20.482;2023-02-10T13:40:33;102097.66;;;13.52;nan
21153;BME280;10734;44.792;20.482;2023-02-10T13:43:04;102094.81;;;13.80;nan
21153;BME280;10734;44.792;20.482;2023-02-10T13:45:33;102092.66;;;13.90;nan
21153;BME280;10734;44.792;20.482;2023-02-10T13:48:05;102101.31;;;14.00;nan
21153;BME280;10734;44.792;20.482;2023-02-10T13:56:23;102094.19;;;14.20;nan
21153;BME280;10734;44.792;20.482;2023-02-10T13:59:02;102085.41;;;14.14;nan
21153;BME280;10734;44.792;20.482;2023-02-10T14:01:41;102084.66;;;14.56;nan
21153;BME280;10734;44.792;20.482;2023-02-10T14:06:49;102089.53;;;14.46;nan
21153;BME280;10734;44.792;20.482;2023-02-10T14:11:57;102082.44;;;13.73;nan
21153;BME280;10734;44.792;20.482;2023-02-10T14:19:41;102081.34;;;13.02;nan
21153;BME280;10734;44.792;20.482;2023-02-10T14:25:00;102080.91;;;13.41;nan
21153;BME280;10734;44.792;20.482;2023-02-10T14:27:30;102075.53;;;13.64;nan
21153;BME280;10734;44.792;20.482;2023-02-10T14:30:05;102073.28;;;13.52;nan
21153;BME280;10734;44.792;20.482;2023-02-10T14:32:43;102068.16;;;13.93;nan
21153;BME280;10734;44.792;20.482;2023-02-10T14:35:16;102073.78;;;13.87;nan
21153;BME280;10734;44.792;20.482;2023-02-10T14:37:55;102075.66;;;14.08;nan
21153;BME280;10734;44.792;20.482;2023-02-10T14:40:23;102070.75;;;14.41;nan
21153;BME280;10734;44.792;20.482;2023-02-10T14:42:51;102072.75;;;14.36;nan
21153;BME280;10734;44.792;20.482;2023-02-10T14:45:21;102065.16;;;14.23;nan
21153;BME280;10734;44.792;20.482;2023-02-10T14:47:50;102063.75;;;14.12;nan
21153;BME280;10734;44.792;20.482;2023-02-10T14:50:35;102073.28;;;13.52;nan
21153;BME280;10734;44.792;20.482;2023-02-10T14:53:03;102066.25;;;13.21;nan
21153;BME280;10734;44.792;20.482;2023-02-10T14:55:33;102067.25;;;13.44;nan
21153;BME280;10734;44.792;20.482;2023-02-10T14:58:05;102077.28;;;13.65;nan
21153;BME280;10734;44.792;20.482;2023-02-10T15:00:33;102083.97;;;13.55;nan
21153;BME280;10734;44.792;20.482;2023-02-10T15:03:00;102091.69;;;13.42;nan
21153;BME280;10734;44.792;20.482;2023-02-10T15:05:37;102086.19;;;13.17;nan
21153;BME280;10734;44.792;20.482;2023-02-10T15:08:07;102081.84;;;12.87;nan
21153;BME280;10734;44.792;20.482;2023-02-10T15:10:41;102081.00;;;12.30;nan
21153;BME280;10734;44.792;20.482;2023-02-10T15:13:13;102091.72;;;12.03;nan
21153;BME280;10734;44.792;20.482;2023-02-10T15:15:42;102089.53;;;11.85;nan
21153;BME280;10734;44.792;20.482;2023-02-10T15:18:25;102090.84;;;11.70;nan
21153;BME280;10734;44.792;20.482;2023-02-10T15:20:56;102089.63;;;11.49;nan
21153;BME280;10734;44.792;20.482;2023-02-10T15:23:24;102083.59;;;10.70;nan
21153;BME280;10734;44.792;20.482;2023-02-10T15:26:19;102085.53;;;10.26;nan
21153;BME280;10734;44.792;20.482;2023-02-10T15:29:00;102089.97;;;9.41;nan
